Time;durP1;ratioP1;P1;durP2;ratioP2;P2;SDS_P1;SDS_P2;PMS_P1;PMS_P2;Temp;Humidity;BMP_temperature;BMP_pressure;BME280_temperature;BME280_humidity;BME280_pressure;Samples;Min_cycle;Max_cycle;Signal;HPM_P1;HPM_P2
2022/08/10 00:02:21;;;;;;;;;;;;;;;32.67;26.19;101972.47;4415110;32;20324;-68
2022/08/10 00:04:47;;;;;;;;;;;;;;;32.94;25.84;101979.06;4419428;32;19957;-68
2022/08/10 00:07:13;;;;;;;;;;;;;;;32.77;25.98;101967.75;4413279;32;20127;-68
2022/08/10 00:09:38;;;;;;;;;;;;;;;32.80;25.96;101977.50;4415409;32;19953;-68
2022/08/10 00:12:04;;;;;;;;;;;;;;;32.79;26.13;101973.03;4418392;32;20030;-68
2022/08/10 00:14:29;;;;;;;;;;;;;;;32.75;26.11;101975.47;4416898;32;19996;-68
2022/08/10 00:16:55;;;;;;;;;;;;;;;32.86;26.00;101973.13;4417423;32;20488;-68
2022/08/10 00:19:20;;;;;;;;;;;;;;;32.90;26.02;101981.53;4414472;32;20013;-68
2022/08/10 00:21:46;;;;;;;;;;;;;;;33.01;26.07;101969.59;4415807;32;19992;-68
2022/08/10 00:24:12;;;;;;;;;;;;;;;32.82;26.18;101974.81;4418418;32;19953;-68
2022/08/10 00:26:38;;;;;;;;;;;;;;;32.62;26.42;101967.56;4417320;32;19963;-68
2022/08/10 00:29:03;;;;;;;;;;;;;;;32.53;26.60;101968.03;4414408;32;20131;-68
2022/08/10 00:31:29;;;;;;;;;;;;;;;32.60;26.53;101965.22;4417089;32;19961;-68
2022/08/10 00:33:55;;;;;;;;;;;;;;;32.58;26.63;101970.06;4416185;32;20073;-68
2022/08/10 00:36:21;;;;;;;;;;;;;;;32.67;26.54;101963.72;4416101;32;19988;-68
2022/08/10 00:38:46;;;;;;;;;;;;;;;32.63;26.61;101968.38;4415560;32;19997;-68
2022/08/10 00:41:12;;;;;;;;;;;;;;;32.12;27.35;101956.22;4417495;32;19994;-68
2022/08/10 00:43:37;;;;;;;;;;;;;;;32.24;27.20;101960.47;4417282;32;20354;-68
2022/08/10 00:46:03;;;;;;;;;;;;;;;32.19;27.20;101962.16;4417874;32;20272;-68
2022/08/10 00:48:29;;;;;;;;;;;;;;;32.11;27.36;101961.25;4417080;32;19987;-68
2022/08/10 00:50:54;;;;;;;;;;;;;;;32.02;27.39;101964.59;4416862;32;19976;-68
2022/08/10 00:53:20;;;;;;;;;;;;;;;32.06;27.43;101956.31;4417426;32;20398;-68
2022/08/10 00:55:45;;;;;;;;;;;;;;;31.79;27.67;101962.69;4417224;32;19954;-68
2022/08/10 00:58:12;;;;;;;;;;;;;;;31.83;27.90;101952.28;4417588;32;19957;-68
2022/08/10 01:00:38;;;;;;;;;;;;;;;31.75;27.98;101951.34;4416688;32;19969;-68
2022/08/10 01:03:03;;;;;;;;;;;;;;;31.65;28.20;101956.06;4417717;32;20414;-68
2022/08/10 01:05:29;;;;;;;;;;;;;;;31.72;28.01;101954.63;4398921;32;20002;-68
2022/08/10 01:08:06;;;;;;;;;;;;;;;31.93;27.76;101959.22;4416697;32;20451;-68
2022/08/10 01:10:52;;;;;;;;;;;;;;;31.83;27.71;101949.38;4415571;32;19973;-68
2022/08/10 01:16:03;;;;;;;;;;;;;;;32.22;27.44;101949.38;3947247;32;15861592;-68
2022/08/10 01:18:33;;;;;;;;;;;;;;;32.22;27.44;101949.38;4434118;32;20437;-68
2022/08/10 01:21:11;;;;;;;;;;;;;;;31.60;28.11;101938.69;4435160;32;19953;-68
2022/08/10 01:23:52;;;;;;;;;;;;;;;31.83;27.99;101940.66;4434520;32;19995;-68
2022/08/10 01:31:40;;;;;;;;;;;;;;;32.25;27.42;101942.41;3949698;32;15726740;-68
2022/08/10 01:34:10;;;;;;;;;;;;;;;32.25;27.42;101942.41;4429692;32;19993;-68
2022/08/10 01:36:46;;;;;;;;;;;;;;;31.99;27.60;101947.47;4431388;32;19993;-68
2022/08/10 01:39:17;;;;;;;;;;;;;;;31.70;28.01;101952.25;4427416;32;20015;-68
2022/08/10 01:41:44;;;;;;;;;;;;;;;31.60;28.26;101954.03;4429907;32;20020;-68
2022/08/10 01:44:12;;;;;;;;;;;;;;;31.50;28.37;101947.06;4432070;32;20664;-68
2022/08/10 01:46:41;;;;;;;;;;;;;;;31.50;28.37;101944.16;4431599;32;19988;-68
2022/08/10 01:49:08;;;;;;;;;;;;;;;31.67;28.16;101935.91;4428193;32;19985;-68
2022/08/10 01:51:36;;;;;;;;;;;;;;;31.47;28.39;101932.88;4429358;32;19990;-68
2022/08/10 01:54:04;;;;;;;;;;;;;;;31.11;28.86;101929.53;4429995;32;20045;-68
2022/08/10 01:56:32;;;;;;;;;;;;;;;31.55;28.37;101933.75;4431060;32;19998;-68
2022/08/10 01:59:00;;;;;;;;;;;;;;;31.39;28.65;101929.84;4426837;32;20506;-68
2022/08/10 02:01:28;;;;;;;;;;;;;;;31.50;28.46;101937.59;4426576;32;20359;-69
2022/08/10 02:03:56;;;;;;;;;;;;;;;31.48;28.65;101935.22;4430630;32;19965;-69
2022/08/10 02:06:24;;;;;;;;;;;;;;;31.52;28.71;101932.75;4430445;32;20013;-69
2022/08/10 02:08:50;;;;;;;;;;;;;;;31.49;28.42;101936.00;4428982;32;19945;-69
2022/08/10 02:11:17;;;;;;;;;;;;;;;31.54;28.57;101935.13;4427786;32;19954;-69
2022/08/10 02:13:43;;;;;;;;;;;;;;;31.66;28.32;101942.28;4431717;32;20273;-69
2022/08/10 02:16:10;;;;;;;;;;;;;;;31.75;28.25;101924.38;4428505;32;20007;-69
2022/08/10 02:18:36;;;;;;;;;;;;;;;31.72;28.23;101935.00;4430207;32;20064;-68
2022/08/10 02:21:03;;;;;;;;;;;;;;;31.78;28.12;101934.91;4429117;32;20062;-68
2022/08/10 02:23:31;;;;;;;;;;;;;;;31.45;28.56;101941.38;4431797;32;19971;-68
2022/08/10 02:25:58;;;;;;;;;;;;;;;31.55;28.39;101936.66;4426414;32;20387;-68
2022/08/10 02:28:24;;;;;;;;;;;;;;;31.62;28.35;101936.78;4427107;32;20117;-68
2022/08/10 02:30:52;;;;;;;;;;;;;;;31.63;28.38;101946.31;4536955;26;19972;-68
2022/08/10 02:33:19;;;;;;;;;;;;;;;31.60;28.48;101939.47;4449089;32;20067;-68
2022/08/10 02:35:46;;;;;;;;;;;;;;;31.58;28.46;101936.34;4446461;32;19957;-68
2022/08/10 02:38:14;;;;;;;;;;;;;;;31.61;28.52;101943.97;4445766;32;20207;-68
2022/08/10 02:40:42;;;;;;;;;;;;;;;31.45;28.75;101942.16;4433452;32;19957;-68
2022/08/10 02:43:19;;;;;;;;;;;;;;;31.51;28.76;101942.84;4434737;32;20555;-68
2022/08/10 02:45:46;;;;;;;;;;;;;;;31.58;28.63;101939.25;4438260;32;20039;-68
2022/08/10 02:48:18;;;;;;;;;;;;;;;31.58;28.69;101936.34;4438123;32;19957;-68
2022/08/10 02:50:47;;;;;;;;;;;;;;;31.64;28.73;101936.22;4437140;32;19987;-67
2022/08/10 02:55:58;;;;;;;;;;;;;;;31.92;28.30;101942.31;3961829;31;15716483;-68
2022/08/10 02:58:27;;;;;;;;;;;;;;;31.92;28.30;101942.31;4432375;32;19964;-68
2022/08/10 03:00:54;;;;;;;;;;;;;;;31.65;28.70;101943.62;4435136;32;19983;-68
2022/08/10 03:03:24;;;;;;;;;;;;;;;31.73;28.61;101939.50;4432878;32;19997;-68
2022/08/10 03:05:52;;;;;;;;;;;;;;;31.46;28.73;101937.91;4432161;32;20004;-68
2022/08/10 03:08:20;;;;;;;;;;;;;;;31.37;29.00;101940.44;4433195;32;20060;-68
2022/08/10 03:10:46;;;;;;;;;;;;;;;31.53;28.89;101940.12;4432239;32;20030;-69
2022/08/10 03:13:13;;;;;;;;;;;;;;;31.50;28.86;101940.50;4434289;32;20356;-68
2022/08/10 03:15:39;;;;;;;;;;;;;;;31.42;28.90;101934.53;4431196;32;20275;-68
2022/08/10 03:18:05;;;;;;;;;;;;;;;31.33;28.95;101934.97;4432589;32;20009;-68
2022/08/10 03:20:32;;;;;;;;;;;;;;;31.33;29.08;101928.34;4429095;32;19987;-68
2022/08/10 03:22:59;;;;;;;;;;;;;;;31.10;29.23;101930.84;4433317;32;20238;-68
2022/08/10 03:25:25;;;;;;;;;;;;;;;31.25;29.19;101933.22;4430581;32;20337;-68
2022/08/10 03:27:51;;;;;;;;;;;;;;;31.14;29.48;101931.31;4430654;32;19999;-68
2022/08/10 03:30:17;;;;;;;;;;;;;;;31.03;29.54;101934.41;4433837;32;20327;-68
2022/08/10 03:32:44;;;;;;;;;;;;;;;31.11;29.38;101926.59;4434690;32;19973;-68
2022/08/10 03:35:11;;;;;;;;;;;;;;;31.04;29.65;101927.25;4431250;32;20022;-68
2022/08/10 03:37:36;;;;;;;;;;;;;;;31.12;29.42;101927.38;4429684;32;19965;-68
2022/08/10 03:40:02;;;;;;;;;;;;;;;31.23;29.15;101935.91;4433284;32;20031;-68
2022/08/10 03:42:30;;;;;;;;;;;;;;;31.35;28.99;101934.41;4432458;32;19994;-68
2022/08/10 03:44:57;;;;;;;;;;;;;;;31.26;29.16;101932.66;4430756;32;19993;-68
2022/08/10 03:47:23;;;;;;;;;;;;;;;30.99;29.38;101931.03;4430639;32;19985;-68
2022/08/10 03:49:50;;;;;;;;;;;;;;;31.27;29.12;101936.38;4433648;32;20331;-68
2022/08/10 03:52:16;;;;;;;;;;;;;;;31.38;28.92;101931.16;4432228;32;20055;-68
2022/08/10 03:54:42;;;;;;;;;;;;;;;31.40;28.69;101925.56;4430279;32;19945;-68
2022/08/10 03:57:08;;;;;;;;;;;;;;;31.39;28.70;101935.66;4430710;32;20231;-68
2022/08/10 03:59:35;;;;;;;;;;;;;;;31.17;29.06;101933.09;4429408;32;19995;-68
2022/08/10 04:02:02;;;;;;;;;;;;;;;31.33;28.96;101934.19;4434903;32;19949;-68
2022/08/10 04:04:28;;;;;;;;;;;;;;;31.22;29.07;101922.69;4434084;32;19965;-68
2022/08/10 04:06:55;;;;;;;;;;;;;;;31.47;28.88;101932.88;4414837;32;19990;-68
2022/08/10 04:09:20;;;;;;;;;;;;;;;31.37;29.06;101937.53;4420657;32;19969;-68
2022/08/10 04:11:46;;;;;;;;;;;;;;;31.25;29.03;101936.94;4421387;32;19961;-68
2022/08/10 04:14:12;;;;;;;;;;;;;;;31.39;28.88;101938.56;4423743;32;20422;-68
2022/08/10 04:16:38;;;;;;;;;;;;;;;31.24;29.16;101935.37;4420249;32;19961;-68
2022/08/10 04:19:03;;;;;;;;;;;;;;;31.28;28.82;101929.22;4422255;32;19961;-68
2022/08/10 04:21:30;;;;;;;;;;;;;;;31.38;28.84;101936.97;4421112;32;20066;-68
2022/08/10 04:23:57;;;;;;;;;;;;;;;31.39;28.81;101934.84;4420753;32;19953;-68
2022/08/10 04:26:24;;;;;;;;;;;;;;;31.09;29.08;101938.00;4422640;32;20391;-68
2022/08/10 04:28:49;;;;;;;;;;;;;;;31.08;29.18;101930.62;4418602;32;19981;-68
2022/08/10 04:31:15;;;;;;;;;;;;;;;31.03;29.34;101930.69;4421393;32;20377;-68
2022/08/10 04:33:44;;;;;;;;;;;;;;;31.08;29.28;101932.75;4421656;32;19957;-68
2022/08/10 04:36:11;;;;;;;;;;;;;;;31.12;29.18;101928.16;4417190;32;20142;-68
2022/08/10 04:38:37;;;;;;;;;;;;;;;31.06;29.17;101932.50;4422858;32;20007;-68
2022/08/10 04:41:03;;;;;;;;;;;;;;;31.11;29.30;101925.81;4423646;32;20042;-68
2022/08/10 04:43:29;;;;;;;;;;;;;;;31.36;28.89;101930.94;4426192;32;20001;-68
2022/08/10 04:45:54;;;;;;;;;;;;;;;31.35;28.72;101929.34;4420472;32;19958;-68
2022/08/10 04:48:23;;;;;;;;;;;;;;;31.31;28.90;101931.81;4418190;32;19975;-68
2022/08/10 04:50:49;;;;;;;;;;;;;;;31.42;28.82;101922.91;4420971;32;19962;-68
2022/08/10 04:53:14;;;;;;;;;;;;;;;31.42;28.67;101920.00;4420874;32;19984;-68
2022/08/10 04:55:42;;;;;;;;;;;;;;;31.50;28.69;101920.88;4418866;32;19957;-68
2022/08/10 04:58:08;;;;;;;;;;;;;;;31.52;28.46;101920.31;4423399;32;19982;-68
2022/08/10 05:00:34;;;;;;;;;;;;;;;31.60;28.47;101927.06;4420806;32;19961;-68
2022/08/10 05:02:59;;;;;;;;;;;;;;;31.59;28.52;101926.28;4422398;32;20005;-68
2022/08/10 05:05:25;;;;;;;;;;;;;;;31.51;28.40;101931.19;4418513;32;19979;-68
2022/08/10 05:07:50;;;;;;;;;;;;;;;31.75;28.26;101933.12;4418842;32;20012;-68
2022/08/10 05:10:15;;;;;;;;;;;;;;;31.85;27.91;101934.25;4419323;32;20658;-68
2022/08/10 05:12:41;;;;;;;;;;;;;;;31.85;28.14;101929.22;4419605;32;20520;-68
2022/08/10 05:15:07;;;;;;;;;;;;;;;31.62;28.46;101930.97;4425959;32;20298;-68
2022/08/10 05:17:34;;;;;;;;;;;;;;;31.76;28.02;101923.03;4417161;32;19977;-68
2022/08/10 05:20:01;;;;;;;;;;;;;;;31.77;28.30;101924.59;4416058;32;20010;-68
2022/08/10 05:22:26;;;;;;;;;;;;;;;31.99;28.01;101924.94;4418443;32;20349;-68
2022/08/10 05:24:52;;;;;;;;;;;;;;;32.06;27.85;101914.75;4419475;32;19949;-68
2022/08/10 05:27:17;;;;;;;;;;;;;;;32.19;27.63;101914.75;4423623;32;20294;-68
2022/08/10 05:29:43;;;;;;;;;;;;;;;32.11;27.66;101920.47;4415956;32;20029;-68
2022/08/10 05:32:09;;;;;;;;;;;;;;;32.02;27.75;101920.12;4419693;32;19965;-68
2022/08/10 05:34:35;;;;;;;;;;;;;;;32.09;27.79;101917.31;4419971;32;20228;-68
2022/08/10 05:37:00;;;;;;;;;;;;;;;32.10;27.77;101912.28;4418043;32;19997;-68
2022/08/10 05:39:26;;;;;;;;;;;;;;;32.30;27.56;101915.28;4418590;32;20416;-68
2022/08/10 05:41:52;;;;;;;;;;;;;;;32.27;27.62;101915.59;4421404;32;19958;-68
2022/08/10 05:44:19;;;;;;;;;;;;;;;32.44;27.36;101922.69;4420339;32;19949;-68
2022/08/10 05:46:44;;;;;;;;;;;;;;;32.61;27.02;101917.22;4423102;32;19976;-68
2022/08/10 05:49:10;;;;;;;;;;;;;;;32.76;26.98;101919.50;4421787;32;19966;-68
2022/08/10 05:51:35;;;;;;;;;;;;;;;32.90;26.72;101926.09;4416709;32;20008;-69
2022/08/10 05:54:01;;;;;;;;;;;;;;;32.76;27.01;101924.59;4418142;32;20453;-69
2022/08/10 05:56:26;;;;;;;;;;;;;;;33.05;26.64;101927.06;4420364;32;19977;-68
2022/08/10 05:58:52;;;;;;;;;;;;;;;33.21;26.36;101931.66;4421425;32;19965;-68
2022/08/10 06:01:20;;;;;;;;;;;;;;;33.15;26.37;101933.16;4420102;32;19958;-68
2022/08/10 06:03:49;;;;;;;;;;;;;;;33.05;26.51;101929.97;4420945;32;20020;-68
2022/08/10 06:06:17;;;;;;;;;;;;;;;33.45;26.07;101921.78;4418683;32;19988;-68
2022/08/10 06:08:44;;;;;;;;;;;;;;;33.63;25.75;101926.59;4417574;32;19945;-68
2022/08/10 06:11:10;;;;;;;;;;;;;;;33.61;25.79;101930.09;4421916;32;20000;-68
2022/08/10 06:16:23;;;;;;;;;;;;;;;33.92;25.33;101931.09;4418983;32;19981;-68
2022/08/10 06:18:49;;;;;;;;;;;;;;;34.06;25.42;101920.84;4416799;32;19949;-68
2022/08/10 06:21:15;;;;;;;;;;;;;;;34.24;24.95;101917.63;4419690;32;19953;-68
2022/08/10 06:23:41;;;;;;;;;;;;;;;34.42;24.81;101924.56;4419534;32;19998;-68
2022/08/10 06:26:08;;;;;;;;;;;;;;;34.55;24.64;101920.69;4420153;32;20251;-68
2022/08/10 06:28:36;;;;;;;;;;;;;;;34.65;24.38;101910.00;4419452;32;20015;-68
2022/08/10 06:31:03;;;;;;;;;;;;;;;34.73;24.25;101917.44;4420985;32;20010;-68
2022/08/10 06:33:30;;;;;;;;;;;;;;;34.80;24.38;101921.72;4421279;32;19957;-68
2022/08/10 06:35:56;;;;;;;;;;;;;;;34.97;24.19;101927.84;4421140;32;19949;-68
2022/08/10 06:38:23;;;;;;;;;;;;;;;34.86;24.25;101920.22;4417565;32;19961;-68
2022/08/10 06:40:53;;;;;;;;;;;;;;;35.03;23.96;101929.22;4419810;32;19992;-68
2022/08/10 06:43:20;;;;;;;;;;;;;;;35.23;23.66;101927.47;4419556;32;20595;-68
2022/08/10 06:45:47;;;;;;;;;;;;;;;35.38;23.43;101919.50;4422277;32;19950;-68
2022/08/10 06:48:31;;;;;;;;;;;;;;;35.38;23.43;101931.22;4420424;32;19973;-69
2022/08/10 06:50:59;;;;;;;;;;;;;;;35.46;23.28;101920.28;4416482;32;19989;-68
2022/08/10 06:53:28;;;;;;;;;;;;;;;35.62;23.12;101918.88;4421777;32;20323;-68
2022/08/10 06:55:56;;;;;;;;;;;;;;;35.63;23.06;101919.66;4418053;32;20034;-68
2022/08/10 06:58:23;;;;;;;;;;;;;;;35.77;22.78;101930.56;4420110;32;19961;-69
2022/08/10 07:00:50;;;;;;;;;;;;;;;35.78;22.39;101925.50;4416661;32;19949;-68
2022/08/10 07:03:16;;;;;;;;;;;;;;;36.05;21.85;101921.53;4422288;32;20006;-68
2022/08/10 07:05:46;;;;;;;;;;;;;;;36.20;21.69;101927.34;4425115;32;19997;-68
2022/08/10 07:08:16;;;;;;;;;;;;;;;36.44;21.18;101925.91;4421285;32;19984;-68
2022/08/10 07:10:42;;;;;;;;;;;;;;;36.56;21.16;101923.34;4420109;32;19953;-68
2022/08/10 07:13:08;;;;;;;;;;;;;;;36.61;21.00;101919.38;4422384;32;19990;-69
2022/08/10 07:15:35;;;;;;;;;;;;;;;36.85;20.44;101913.59;4419942;32;20001;-69
2022/08/10 07:18:02;;;;;;;;;;;;;;;36.87;20.17;101921.81;4420126;32;19970;-69
2022/08/10 07:20:28;;;;;;;;;;;;;;;36.69;20.01;101912.09;4419242;32;19953;-68
2022/08/10 07:22:55;;;;;;;;;;;;;;;36.58;19.96;101915.50;4421384;32;20001;-68
2022/08/10 07:25:23;;;;;;;;;;;;;;;36.82;19.76;101914.78;4422312;32;20370;-69
2022/08/10 07:27:50;;;;;;;;;;;;;;;36.93;19.52;101904.75;4422290;32;19989;-68
2022/08/10 07:30:16;;;;;;;;;;;;;;;37.18;19.23;101905.53;4423929;32;20290;-68
2022/08/10 07:32:43;;;;;;;;;;;;;;;37.07;19.21;101911.84;4423202;32;19984;-68
2022/08/10 07:35:11;;;;;;;;;;;;;;;37.26;19.04;101906.25;4420818;32;20007;-68
2022/08/10 07:37:37;;;;;;;;;;;;;;;37.57;18.75;101914.19;4423097;32;19941;-68
2022/08/10 07:40:03;;;;;;;;;;;;;;;37.70;18.69;101916.81;4422260;32;19950;-68
2022/08/10 07:42:30;;;;;;;;;;;;;;;37.65;18.51;101912.00;4422889;32;20003;-68
2022/08/10 07:44:56;;;;;;;;;;;;;;;37.89;18.27;101907.44;4423613;32;19957;-68
2022/08/10 07:47:26;;;;;;;;;;;;;;;37.83;18.11;101910.59;4425900;32;19950;-68
2022/08/10 07:49:52;;;;;;;;;;;;;;;37.49;18.36;101913.47;4423264;32;20044;-68
2022/08/10 07:52:18;;;;;;;;;;;;;;;37.49;18.21;101909.78;4427536;32;19995;-68
2022/08/10 07:54:46;;;;;;;;;;;;;;;37.25;18.31;101910.56;4424694;32;20011;-67
2022/08/10 07:57:16;;;;;;;;;;;;;;;37.52;18.23;101908.56;4425240;32;20278;-67
2022/08/10 07:59:43;;;;;;;;;;;;;;;37.12;18.34;101905.75;4422524;32;20023;-67
2022/08/10 08:02:17;;;;;;;;;;;;;;;37.12;18.13;101913.78;4426250;32;20333;-67
2022/08/10 08:04:43;;;;;;;;;;;;;;;37.49;17.91;101912.72;4423495;32;19949;-67
2022/08/10 08:07:11;;;;;;;;;;;;;;;37.26;18.08;101912.91;4422208;32;20388;-68
2022/08/10 08:09:37;;;;;;;;;;;;;;;37.31;17.96;101911.09;4425213;32;20033;-68
2022/08/10 08:12:03;;;;;;;;;;;;;;;37.24;18.07;101917.84;4424569;32;19949;-68
2022/08/10 08:14:30;;;;;;;;;;;;;;;37.60;17.78;101921.00;4423892;32;20015;-68
2022/08/10 08:16:57;;;;;;;;;;;;;;;37.77;17.66;101913.00;4423496;32;19988;-67
2022/08/10 08:19:24;;;;;;;;;;;;;;;37.85;17.42;101907.06;4423867;32;19957;-67
2022/08/10 08:21:50;;;;;;;;;;;;;;;37.72;17.55;101916.22;4426559;32;19983;-67
2022/08/10 08:24:16;;;;;;;;;;;;;;;37.78;17.44;101910.88;4423932;32;19992;-67
2022/08/10 08:26:42;;;;;;;;;;;;;;;38.17;17.17;101923.78;4424649;32;19993;-68
2022/08/10 08:29:09;;;;;;;;;;;;;;;38.31;17.14;101925.75;4425190;32;20333;-68
2022/08/10 08:31:35;;;;;;;;;;;;;;;38.11;17.09;101918.16;4427046;32;19993;-68
2022/08/10 08:34:02;;;;;;;;;;;;;;;38.38;17.01;101919.00;4422502;32;20489;-67
2022/08/10 08:36:28;;;;;;;;;;;;;;;38.52;16.88;101916.44;4428269;32;20017;-67
2022/08/10 08:38:54;;;;;;;;;;;;;;;38.86;16.62;101911.25;4425017;32;19973;-67
2022/08/10 08:41:39;;;;;;;;;;;;;;;38.81;16.77;101924.13;4424862;32;20000;-68
2022/08/10 08:46:47;;;;;;;;;;;;;;;39.78;16.23;101906.16;3964283;32;15722549;-68
2022/08/10 08:49:33;;;;;;;;;;;;;;;39.78;16.23;101906.16;4445144;32;19961;-67
2022/08/10 08:52:08;;;;;;;;;;;;;;;39.86;16.17;101914.91;4444936;32;20004;-68
2022/08/10 09:16:04;;;;;;;;;;;;;;;41.05;15.86;101896.75;3960479;32;15735316;-67
2022/08/10 09:18:36;;;;;;;;;;;;;;;41.65;15.41;101891.44;4438769;32;19995;-67
2022/08/10 09:21:05;;;;;;;;;;;;;;;42.00;15.15;101889.50;4435754;32;19951;-67
2022/08/10 09:23:35;;;;;;;;;;;;;;;41.94;15.23;101897.16;4439209;32;19973;-67
2022/08/10 09:26:07;;;;;;;;;;;;;;;42.13;15.08;101885.16;4439633;32;20106;-69
2022/08/10 09:28:37;;;;;;;;;;;;;;;42.52;14.79;101889.31;4439381;32;20268;-68
2022/08/10 09:31:05;;;;;;;;;;;;;;;42.62;14.73;101889.97;4435884;32;20259;-68
2022/08/10 09:33:50;;;;;;;;;;;;;;;42.88;14.55;101892.50;4438056;32;20033;-68
2022/08/10 09:39:00;;;;;;;;;;;;;;;43.01;14.61;101876.28;3962804;32;15723581;-69
2022/08/10 09:41:45;;;;;;;;;;;;;;;43.01;14.61;101876.28;4439302;32;19957;-69
2022/08/10 09:44:17;;;;;;;;;;;;;;;42.51;14.90;101881.88;4438849;32;19961;-69
2022/08/10 09:47:02;;;;;;;;;;;;;;;42.79;14.72;101890.41;4440934;32;19976;-69
2022/08/10 09:52:13;;;;;;;;;;;;;;;44.04;13.90;101872.41;3961047;32;15722588;-69
2022/08/10 09:54:59;;;;;;;;;;;;;;;44.04;13.90;101872.41;4447124;32;19984;-69
2022/08/10 09:57:32;;;;;;;;;;;;;;;44.05;13.93;101873.94;4446901;32;19965;-69
2022/08/10 10:00:08;;;;;;;;;;;;;;;44.15;13.67;101879.72;4445501;32;20285;-69
2022/08/10 10:08:00;;;;;;;;;;;;;;;44.85;13.42;101869.00;3961599;32;15726596;-68
2022/08/10 10:10:34;;;;;;;;;;;;;;;44.85;13.42;101869.00;4447311;32;19957;-68
2022/08/10 10:13:08;;;;;;;;;;;;;;;43.81;13.97;101856.84;4447635;32;19953;-68
2022/08/10 10:15:39;;;;;;;;;;;;;;;44.69;13.40;101856.97;4445360;32;20306;-68
2022/08/10 10:18:24;;;;;;;;;;;;;;;44.59;13.47;101855.59;4444188;32;19949;-68
2022/08/10 10:21:10;;;;;;;;;;;;;;;45.13;13.04;101855.72;4443390;32;20084;-68
2022/08/10 10:26:30;;;;;;;;;;;;;;;46.00;12.40;101858.94;3962392;32;15724613;-67
2022/08/10 10:31:49;;;;;;;;;;;;;;;46.34;12.19;101845.03;3961313;32;15725453;-67
2022/08/10 10:34:20;;;;;;;;;;;;;;;46.34;12.19;101845.03;4444758;32;20012;-67
2022/08/10 10:36:46;;;;;;;;;;;;;;;45.85;12.40;101835.84;4447235;32;19967;-67
2022/08/10 10:39:12;;;;;;;;;;;;;;;46.63;11.58;101844.25;4444706;32;19957;-68
2022/08/10 10:41:47;;;;;;;;;;;;;;;46.83;11.77;101854.94;4446975;32;20019;-67
2022/08/10 10:44:32;;;;;;;;;;;;;;;46.30;11.98;101844.84;4443707;32;19953;-67
2022/08/10 10:47:08;;;;;;;;;;;;;;;47.10;11.40;101854.72;4444924;32;20299;-67
2022/08/10 10:57:48;;;;;;;;;;;;;;;48.15;10.79;101831.13;3979585;32;15722886;-67
2022/08/10 11:00:15;;;;;;;;;;;;;;;48.15;10.79;101831.13;4467932;32;19972;-67
2022/08/10 11:05:40;;;;;;;;;;;;;;;48.78;10.22;101839.66;3967772;32;15725163;-90
2022/08/10 11:08:09;;;;;;;;;;;;;;;48.78;10.22;101839.66;4441588;32;20024;-87
2022/08/10 11:10:43;;;;;;;;;;;;;;;48.18;10.48;101826.78;4438171;32;19962;-86
2022/08/10 11:18:54;;;;;;;;;;;;;;;48.95;9.97;101815.72;3961691;32;15724547;-67
2022/08/10 11:26:55;;;;;;;;;;;;;;;49.53;9.68;101814.91;3970781;31;15716754;-67
2022/08/10 11:32:01;;;;;;;;;;;;;;;49.50;9.64;101821.53;3984140;32;15722650;-68
2022/08/10 11:37:25;;;;;;;;;;;;;;;49.00;9.65;101811.44;3963763;32;15721582;-67
2022/08/10 11:42:45;;;;;;;;;;;;;;;50.48;8.90;101797.94;3963523;32;15722545;-69
2022/08/10 11:45:15;;;;;;;;;;;;;;;50.48;8.90;101797.94;4441504;32;20009;-67
2022/08/10 11:47:45;;;;;;;;;;;;;;;49.75;9.31;101802.97;4442939;32;19995;-67
2022/08/10 11:50:30;;;;;;;;;;;;;;;50.34;9.03;101806.50;4441555;32;20008;-67
2022/08/10 11:55:33;;;;;;;;;;;;;;;50.53;8.89;101804.81;3965256;32;15723486;-68
2022/08/10 11:58:00;;;;;;;;;;;;;;;50.53;8.89;101804.81;4441033;32;19938;-68
2022/08/10 12:00:29;;;;;;;;;;;;;;;50.69;8.77;101802.34;4438411;32;20006;-68
2022/08/10 12:02:56;;;;;;;;;;;;;;;51.36;8.45;101800.63;4441003;32;20208;-68
2022/08/10 12:05:27;;;;;;;;;;;;;;;50.96;8.62;101804.66;4444525;32;19950;-68
2022/08/10 12:07:53;;;;;;;;;;;;;;;50.24;8.92;101797.13;4440833;32;20016;-68
2022/08/10 12:10:20;;;;;;;;;;;;;;;50.12;9.02;101793.78;4436894;32;19957;-68
2022/08/10 12:12:51;;;;;;;;;;;;;;;50.17;8.97;101791.66;4439328;32;19993;-68
2022/08/10 12:15:22;;;;;;;;;;;;;;;49.92;9.17;101796.84;4425050;32;19965;-68
2022/08/10 12:17:50;;;;;;;;;;;;;;;50.13;9.01;101782.53;4438220;32;20109;-68
2022/08/10 12:23:11;;;;;;;;;;;;;;;51.57;8.36;101777.91;3960521;32;15747493;-68
2022/08/10 12:25:58;;;;;;;;;;;;;;;51.57;8.36;101777.91;4439962;32;19981;-68
2022/08/10 12:28:35;;;;;;;;;;;;;;;51.14;8.45;101775.97;4439351;32;20321;-68
2022/08/10 12:31:05;;;;;;;;;;;;;;;50.74;8.73;101765.03;4438135;32;20073;-69
2022/08/10 12:33:33;;;;;;;;;;;;;;;50.75;8.73;101769.53;4440881;32;19953;-69
2022/08/10 12:38:51;;;;;;;;;;;;;;;51.74;8.23;101761.84;3962896;32;15721821;-69
2022/08/10 12:41:21;;;;;;;;;;;;;;;51.74;8.23;101761.84;4446427;32;20003;-69
2022/08/10 12:43:50;;;;;;;;;;;;;;;51.16;8.46;101763.28;4447365;32;19985;-69
2022/08/10 12:51:32;;;;;;;;;;;;;;;51.20;8.48;101751.38;3965144;32;15728515;-69
2022/08/10 12:54:06;;;;;;;;;;;;;;;51.20;8.48;101751.38;4446560;32;20060;-68
2022/08/10 12:56:35;;;;;;;;;;;;;;;50.78;8.53;101744.16;4447249;32;20022;-68
2022/08/10 12:59:03;;;;;;;;;;;;;;;50.12;8.89;101733.88;4443249;32;20430;-68
2022/08/10 13:01:30;;;;;;;;;;;;;;;50.43;8.73;101741.56;4447230;32;20410;-68
2022/08/10 13:03:59;;;;;;;;;;;;;;;50.85;8.54;101733.88;4446901;32;19986;-69
2022/08/10 13:06:26;;;;;;;;;;;;;;;50.48;8.69;101737.25;4445251;32;20006;-69
2022/08/10 13:09:08;;;;;;;;;;;;;;;51.36;8.35;101739.81;4444478;32;19945;-68
2022/08/10 13:11:37;;;;;;;;;;;;;;;51.46;8.18;101731.84;4446230;32;20310;-68
2022/08/10 13:14:08;;;;;;;;;;;;;;;50.46;8.68;101731.97;4446868;32;20032;-68
2022/08/10 13:16:35;;;;;;;;;;;;;;;50.88;8.49;101720.47;4436110;32;19945;-68
2022/08/10 13:19:02;;;;;;;;;;;;;;;51.19;8.32;101726.59;4447030;32;19994;-69
2022/08/10 13:21:30;;;;;;;;;;;;;;;52.18;7.91;101720.91;4444540;32;20016;-69
2022/08/10 13:23:59;;;;;;;;;;;;;;;52.04;7.91;101711.56;4447284;32;19961;-69
2022/08/10 13:26:26;;;;;;;;;;;;;;;52.33;7.66;101725.78;4448163;32;19988;-69
2022/08/10 13:28:54;;;;;;;;;;;;;;;52.69;7.49;101720.53;4444629;32;20001;-69
2022/08/10 13:31:25;;;;;;;;;;;;;;;53.07;7.29;101721.34;4442682;32;19982;-69
2022/08/10 13:33:53;;;;;;;;;;;;;;;53.25;7.26;101708.91;4445360;32;19957;-69
2022/08/10 13:36:25;;;;;;;;;;;;;;;53.71;7.07;101709.69;4445411;32;19986;-69
2022/08/10 13:38:53;;;;;;;;;;;;;;;53.40;7.12;101707.66;4443904;32;19993;-69
2022/08/10 13:41:19;;;;;;;;;;;;;;;53.78;6.99;101714.31;4443096;32;19972;-69
2022/08/10 13:43:57;;;;;;;;;;;;;;;54.06;6.90;101710.97;4442922;32;20013;-69
2022/08/10 13:46:22;;;;;;;;;;;;;;;53.63;6.99;101711.81;4441801;32;20004;-69
2022/08/10 13:48:52;;;;;;;;;;;;;;;54.01;6.79;101703.41;4441571;32;20302;-69
2022/08/10 13:51:20;;;;;;;;;;;;;;;53.32;7.13;101701.50;4442890;32;20089;-69
2022/08/10 13:53:47;;;;;;;;;;;;;;;52.07;7.74;101691.34;4441943;32;19957;-69
2022/08/10 13:56:13;;;;;;;;;;;;;;;51.64;8.04;101691.81;4441905;32;20030;-68
2022/08/10 13:58:40;;;;;;;;;;;;;;;52.34;7.60;101690.47;4442128;32;19968;-69
2022/08/10 14:01:11;;;;;;;;;;;;;;;52.30;7.51;101697.16;4440999;32;19949;-69
2022/08/10 14:03:38;;;;;;;;;;;;;;;52.60;7.35;101673.75;4432237;32;20044;-69
2022/08/10 14:06:05;;;;;;;;;;;;;;;53.79;6.84;101679.69;4434154;32;20099;-69
2022/08/10 14:08:31;;;;;;;;;;;;;;;54.52;6.52;101688.31;4433137;32;19964;-69
2022/08/10 14:11:00;;;;;;;;;;;;;;;54.68;6.42;101684.69;4430670;32;19974;-69
2022/08/10 14:13:26;;;;;;;;;;;;;;;55.36;6.05;101676.41;4430777;32;20353;-69
2022/08/10 14:15:53;;;;;;;;;;;;;;;55.02;6.18;101669.25;4432758;32;20037;-69
2022/08/10 14:18:18;;;;;;;;;;;;;;;55.01;6.12;101659.44;4432617;32;20325;-69
2022/08/10 14:20:46;;;;;;;;;;;;;;;55.10;6.07;101657.25;4430541;32;20316;-70